Saltar para o conteúdo principal

Monção, Valinha

ID 1210605 · 42.0667, -8.3833 mapa

Última leitura · 2026-05-09 19:00 (Europe/Lisbon)

Temperatura
14.6 °C
Humidade
88 %
Pressão
Precipitação
0.3 mm
Radiação
379 W/m²
Velocidade do vento
1.8 km/h
Direcção do vento
E · Este

Histórico de 24 horas

Hora (Europe/Lisbon) Temperatura Humidade Pressão Chuva Vento Direcção
2026-05-09 19:00 14.6 °C 88 % 0.3 mm 1.8 km/h E
2026-05-09 18:00 13.6 °C 93 % 0.1 mm 2.5 km/h NE
2026-05-09 17:00 14.4 °C 83 % 1.0 mm 4.0 km/h SE
2026-05-09 16:00 17.9 °C 74 % 0.4 mm 5.8 km/h NW
2026-05-09 15:00 17.3 °C 72 % 0.0 mm 4.0 km/h E
2026-05-09 14:00 18.8 °C 58 % 0.0 mm 2.9 km/h SE
2026-05-09 13:00 18.5 °C 59 % 0.0 mm 7.9 km/h E
2026-05-09 12:00 18.9 °C 55 % 0.0 mm 7.9 km/h SE
2026-05-09 11:00 18.3 °C 67 % 0.0 mm 5.0 km/h NE
2026-05-09 10:00 16.0 °C 73 % 0.0 mm 3.2 km/h NE
2026-05-09 09:00 15.7 °C 73 % 0.0 mm 5.0 km/h E
2026-05-09 08:00 13.4 °C 81 % 0.0 mm 14.8 km/h E
2026-05-09 07:00 12.4 °C 84 % 0.0 mm 6.5 km/h E
2026-05-09 06:00 12.7 °C 84 % 0.0 mm 11.9 km/h E
2026-05-09 05:00 12.9 °C 84 % 0.0 mm 4.0 km/h E
2026-05-09 04:00 13.0 °C 83 % 0.0 mm 6.5 km/h E
2026-05-09 03:00 13.7 °C 79 % 0.1 mm 6.1 km/h E
2026-05-09 02:00 14.5 °C 72 % 0.0 mm 14.4 km/h E
2026-05-09 01:00 14.5 °C 74 % 0.0 mm 22.7 km/h E
2026-05-09 00:00 14.1 °C 76 % 0.0 mm 13.3 km/h E
2026-05-08 23:00 14.0 °C 75 % 0.0 mm 10.4 km/h E
2026-05-08 22:00 13.7 °C 79 % 0.0 mm 6.1 km/h E
2026-05-08 21:00 15.6 °C 74 % 0.0 mm 1.4 km/h NE
2026-05-08 20:00 17.9 °C 63 % 0.0 mm 1.1 km/h NE